Terminal Aerodrome Forecast
Issued by NWS Tampa Bay Area, FL

Home | Current Version | Previous Version | Text Only | Print | Product List | Glossary On
Versions: 1 2 3 4 5 6 7 8 9 10 11 12 13 14 15 16 17 18 19 20 21 22 23 24 25 26
000
FTUS42 KTBW 280900 AAA
TAFTPA
TAF AMD
KTPA 280923Z 2809/2906 25007KT P6SM SCT025 SCT250
     FM281200 26009KT P6SM VCTS SCT025CB SCT250
     FM281700 26012G18KT P6SM FEW040 SCT250
     FM282300 26012KT P6SM FEW035 SCT250=

USA.gov is the U.S. government's official web portal to all federal, state and local government web resources and services.